sensor_id;sensor_type;location;lat;lon;timestamp;pressure;altitude;pressure_sealevel;temperature;humidity
29239;BME280;16267;48.194;11.546;2023-09-19T00:00:38;95668.50;;;18.24;81.14
29239;BME280;16267;48.194;11.546;2023-09-19T00:03:06;95664.56;;;18.25;81.33
29239;BME280;16267;48.194;11.546;2023-09-19T00:05:35;95663.81;;;18.25;81.09
29239;BME280;16267;48.194;11.546;2023-09-19T00:08:02;95657.16;;;18.26;81.11
29239;BME280;16267;48.194;11.546;2023-09-19T00:10:31;95658.38;;;18.25;80.69
29239;BME280;16267;48.194;11.546;2023-09-19T00:12:58;95656.41;;;18.25;80.54
29239;BME280;16267;48.194;11.546;2023-09-19T00:15:36;95667.28;;;18.25;80.10
29239;BME280;16267;48.194;11.546;2023-09-19T00:18:04;95661.84;;;18.25;80.26
29239;BME280;16267;48.194;11.546;2023-09-19T00:20:32;95657.16;;;18.26;80.31
29239;BME280;16267;48.194;11.546;2023-09-19T00:23:00;95655.69;;;18.25;80.37
29239;BME280;16267;48.194;11.546;2023-09-19T00:25:34;95657.66;;;18.24;80.43
29239;BME280;16267;48.194;11.546;2023-09-19T00:28:01;95654.94;;;18.24;80.13
29239;BME280;16267;48.194;11.546;2023-09-19T00:30:27;95657.66;;;18.24;80.26
29239;BME280;16267;48.194;11.546;2023-09-19T00:32:53;95666.53;;;18.25;80.14
29239;BME280;16267;48.194;11.546;2023-09-19T00:35:20;95678.16;;;18.25;80.37
29239;BME280;16267;48.194;11.546;2023-09-19T00:37:50;95673.19;;;18.24;80.18
29239;BME280;16267;48.194;11.546;2023-09-19T00:40:16;95672.72;;;18.25;79.97
29239;BME280;16267;48.194;11.546;2023-09-19T00:42:47;95675.13;;;18.23;79.78
29239;BME280;16267;48.194;11.546;2023-09-19T00:45:16;95669.69;;;18.23;79.94
29239;BME280;16267;48.194;11.546;2023-09-19T00:47:46;95675.13;;;18.23;80.02
29239;BME280;16267;48.194;11.546;2023-09-19T00:50:22;95677.84;;;18.23;80.04
29239;BME280;16267;48.194;11.546;2023-09-19T00:52:50;95686.47;;;18.22;79.97
29239;BME280;16267;48.194;11.546;2023-09-19T00:55:18;95692.66;;;18.22;79.89
29239;BME280;16267;48.194;11.546;2023-09-19T00:57:45;95689.94;;;18.22;79.88
29239;BME280;16267;48.194;11.546;2023-09-19T01:00:13;95692.66;;;18.22;80.01
29239;BME280;16267;48.194;11.546;2023-09-19T01:02:44;95698.56;;;18.21;79.80
29239;BME280;16267;48.194;11.546;2023-09-19T01:05:11;95697.03;;;18.20;80.16
29239;BME280;16267;48.194;11.546;2023-09-19T01:07:38;95695.84;;;18.21;80.65
29239;BME280;16267;48.194;11.546;2023-09-19T01:10:18;95703.22;;;18.20;80.62
29239;BME280;16267;48.194;11.546;2023-09-19T01:16:19;95702.16;;;18.18;80.65
29239;BME280;16267;48.194;11.546;2023-09-19T01:22:00;95709.56;;;18.17;80.81
29239;BME280;16267;48.194;11.546;2023-09-19T01:30:47;95719.69;;;18.17;80.87
29239;BME280;16267;48.194;11.546;2023-09-19T01:33:19;95729.03;;;18.16;80.88
29239;BME280;16267;48.194;11.546;2023-09-19T01:35:45;95722.88;;;18.15;81.15
29239;BME280;16267;48.194;11.546;2023-09-19T01:38:11;95728.31;;;18.15;81.03
29239;BME280;16267;48.194;11.546;2023-09-19T01:41:04;95722.88;;;18.15;81.04
29239;BME280;16267;48.194;11.546;2023-09-19T01:43:41;95728.31;;;18.15;81.00
29239;BME280;16267;48.194;11.546;2023-09-19T01:46:23;95725.59;;;18.15;81.01
29239;BME280;16267;48.194;11.546;2023-09-19T01:52:12;95737.19;;;18.16;80.89
29239;BME280;16267;48.194;11.546;2023-09-19T01:55:07;95741.88;;;18.15;80.64
29239;BME280;16267;48.194;11.546;2023-09-19T01:58:01;95732.22;;;18.14;80.99
29239;BME280;16267;48.194;11.546;2023-09-19T02:00:33;95739.16;;;18.15;81.09
29239;BME280;16267;48.194;11.546;2023-09-19T02:03:03;95733.72;;;18.15;80.95
29239;BME280;16267;48.194;11.546;2023-09-19T02:05:29;95731.75;;;18.16;81.03
29239;BME280;16267;48.194;11.546;2023-09-19T02:07:55;95734.47;;;18.16;80.99
29239;BME280;16267;48.194;11.546;2023-09-19T02:10:22;95732.22;;;18.14;81.02
29239;BME280;16267;48.194;11.546;2023-09-19T02:12:50;95739.16;;;18.15;80.89
29239;BME280;16267;48.194;11.546;2023-09-19T02:15:16;95735.41;;;18.13;81.26
29239;BME280;16267;48.194;11.546;2023-09-19T02:17:43;95729.97;;;18.13;81.59
29239;BME280;16267;48.194;11.546;2023-09-19T02:20:11;95736.59;;;18.12;81.38
29239;BME280;16267;48.194;11.546;2023-09-19T02:22:43;95735.84;;;18.11;81.20
29239;BME280;16267;48.194;11.546;2023-09-19T02:25:10;95733.59;;;18.10;81.29
29239;BME280;16267;48.194;11.546;2023-09-19T02:27:36;95735.09;;;18.11;81.63
29239;BME280;16267;48.194;11.546;2023-09-19T02:30:04;95734.34;;;18.10;81.57
29239;BME280;16267;48.194;11.546;2023-09-19T02:32:31;95739.78;;;18.10;81.55
29239;BME280;16267;48.194;11.546;2023-09-19T02:35:01;95735.53;;;18.09;81.29
29239;BME280;16267;48.194;11.546;2023-09-19T02:37:26;95738.72;;;18.08;81.48
29239;BME280;16267;48.194;11.546;2023-09-19T02:39:52;95742.19;;;18.08;81.52
29239;BME280;16267;48.194;11.546;2023-09-19T02:42:18;95746.88;;;18.08;81.47
29239;BME280;16267;48.194;11.546;2023-09-19T02:44:44;95744.91;;;18.08;81.51
29239;BME280;16267;48.194;11.546;2023-09-19T02:47:12;95741.44;;;18.08;81.44
29239;BME280;16267;48.194;11.546;2023-09-19T02:49:40;95748.53;;;18.05;81.42
29239;BME280;16267;48.194;11.546;2023-09-19T02:52:07;95740.38;;;18.05;81.48
29239;BME280;16267;48.194;11.546;2023-09-19T02:54:33;95749.72;;;18.04;81.35
29239;BME280;16267;48.194;11.546;2023-09-19T02:56:59;95748.97;;;18.03;81.44
29239;BME280;16267;48.194;11.546;2023-09-19T02:59:25;95747.47;;;18.02;81.69
29239;BME280;16267;48.194;11.546;2023-09-19T03:01:51;95748.69;;;18.01;81.35
29239;BME280;16267;48.194;11.546;2023-09-19T03:04:16;95742.94;;;17.99;81.25
29239;BME280;16267;48.194;11.546;2023-09-19T03:06:46;95746.41;;;18.00;81.14
29239;BME280;16267;48.194;11.546;2023-09-19T03:09:14;95744.44;;;18.00;80.98
29239;BME280;16267;48.194;11.546;2023-09-19T03:11:41;95749.56;;;17.98;81.18
29239;BME280;16267;48.194;11.546;2023-09-19T03:14:08;95744.91;;;17.99;81.21
29239;BME280;16267;48.194;11.546;2023-09-19T03:16:35;95746.84;;;17.98;81.10
29239;BME280;16267;48.194;11.546;2023-09-19T03:19:03;95743.38;;;17.98;81.05
29239;BME280;16267;48.194;11.546;2023-09-19T03:21:29;95743.38;;;17.98;80.87
29239;BME280;16267;48.194;11.546;2023-09-19T03:23:55;95740.69;;;17.98;80.79
29239;BME280;16267;48.194;11.546;2023-09-19T03:26:21;95746.56;;;17.96;80.81
29239;BME280;16267;48.194;11.546;2023-09-19T03:28:47;95748.53;;;17.96;80.47
29239;BME280;16267;48.194;11.546;2023-09-19T03:31:13;95750.19;;;17.93;80.60
29239;BME280;16267;48.194;11.546;2023-09-19T03:33:39;95752.59;;;17.91;80.12
29239;BME280;16267;48.194;11.546;2023-09-19T03:36:05;95746.44;;;17.91;80.75
29239;BME280;16267;48.194;11.546;2023-09-19T03:38:31;95748.84;;;17.89;80.46
29239;BME280;16267;48.194;11.546;2023-09-19T03:40:58;95759.25;;;17.81;78.65
29239;BME280;16267;48.194;11.546;2023-09-19T03:43:24;95759.25;;;17.81;79.68
29239;BME280;16267;48.194;11.546;2023-09-19T03:45:50;95755.91;;;17.77;79.68
29239;BME280;16267;48.194;11.546;2023-09-19T03:48:16;95760.13;;;17.78;80.03
29239;BME280;16267;48.194;11.546;2023-09-19T03:50:42;95765.13;;;17.79;80.36
29239;BME280;16267;48.194;11.546;2023-09-19T03:53:09;95767.84;;;17.79;80.28
29239;BME280;16267;48.194;11.546;2023-09-19T03:55:35;95762.69;;;17.72;80.09
29239;BME280;16267;48.194;11.546;2023-09-19T03:58:02;95766.47;;;17.75;80.33
29239;BME280;16267;48.194;11.546;2023-09-19T04:00:28;95769.47;;;17.77;80.64
29239;BME280;16267;48.194;11.546;2023-09-19T04:02:55;95763.31;;;17.76;80.47
29239;BME280;16267;48.194;11.546;2023-09-19T04:05:23;95778.81;;;17.76;80.32
29239;BME280;16267;48.194;11.546;2023-09-19T04:07:49;95764.50;;;17.75;80.12
29239;BME280;16267;48.194;11.546;2023-09-19T04:10:16;95770.81;;;17.72;79.46
29239;BME280;16267;48.194;11.546;2023-09-19T04:12:54;95770.06;;;17.72;80.64
29239;BME280;16267;48.194;11.546;2023-09-19T04:15:20;95773.53;;;17.72;80.85
29239;BME280;16267;48.194;11.546;2023-09-19T04:17:50;95773.22;;;17.70;80.33
29239;BME280;16267;48.194;11.546;2023-09-19T04:20:20;95781.38;;;17.70;80.93
29239;BME280;16267;48.194;11.546;2023-09-19T04:22:48;95779.41;;;17.71;81.42
29239;BME280;16267;48.194;11.546;2023-09-19T04:25:14;95775.34;;;17.66;80.15
29239;BME280;16267;48.194;11.546;2023-09-19T04:27:40;95777.16;;;17.69;81.02
29239;BME280;16267;48.194;11.546;2023-09-19T04:30:08;95782.13;;;17.71;81.48
29239;BME280;16267;48.194;11.546;2023-09-19T04:32:38;95789.22;;;17.68;81.45
29239;BME280;16267;48.194;11.546;2023-09-19T04:35:08;95791.63;;;17.66;80.52
29239;BME280;16267;48.194;11.546;2023-09-19T04:37:41;95787.13;;;17.63;80.69
29239;BME280;16267;48.194;11.546;2023-09-19T04:40:10;95800.53;;;17.67;80.99
29239;BME280;16267;48.194;11.546;2023-09-19T04:42:45;95802.50;;;17.66;80.85
29239;BME280;16267;48.194;11.546;2023-09-19T04:45:12;95803.69;;;17.65;80.88
29239;BME280;16267;48.194;11.546;2023-09-19T04:47:38;95812.88;;;17.68;81.45
29239;BME280;16267;48.194;11.546;2023-09-19T04:50:13;95809.88;;;17.66;81.28
29239;BME280;16267;48.194;11.546;2023-09-19T04:52:43;95816.06;;;17.66;81.35
29239;BME280;16267;48.194;11.546;2023-09-19T04:55:14;95811.06;;;17.65;81.00
29239;BME280;16267;48.194;11.546;2023-09-19T04:57:46;95821.50;;;17.66;81.25
29239;BME280;16267;48.194;11.546;2023-09-19T05:00:23;95817.25;;;17.65;80.85
29239;BME280;16267;48.194;11.546;2023-09-19T05:02:56;95830.06;;;17.65;80.74
29239;BME280;16267;48.194;11.546;2023-09-19T05:05:22;95823.91;;;17.64;81.41
29239;BME280;16267;48.194;11.546;2023-09-19T05:07:49;95830.06;;;17.65;81.22
29239;BME280;16267;48.194;11.546;2023-09-19T05:10:16;95843.94;;;17.67;81.32
29239;BME280;16267;48.194;11.546;2023-09-19T05:12:44;95845.44;;;17.68;81.13
29239;BME280;16267;48.194;11.546;2023-09-19T05:15:14;95846.97;;;17.69;81.41
29239;BME280;16267;48.194;11.546;2023-09-19T05:17:40;95845.75;;;17.60;80.22
29239;BME280;16267;48.194;11.546;2023-09-19T05:20:07;95846.34;;;17.65;81.12
29239;BME280;16267;48.194;11.546;2023-09-19T05:22:43;95855.56;;;17.67;81.36
29239;BME280;16267;48.194;11.546;2023-09-19T05:25:10;95855.13;;;17.69;81.13
29239;BME280;16267;48.194;11.546;2023-09-19T05:27:36;95862.81;;;17.70;81.07
29239;BME280;16267;48.194;11.546;2023-09-19T05:30:03;95861.59;;;17.71;81.28
29239;BME280;16267;48.194;11.546;2023-09-19T05:32:29;95863.53;;;17.71;80.80
29239;BME280;16267;48.194;11.546;2023-09-19T05:34:54;95860.56;;;17.69;80.14
29239;BME280;16267;48.194;11.546;2023-09-19T05:37:22;95864.75;;;17.70;80.68
29239;BME280;16267;48.194;11.546;2023-09-19T05:39:49;95869.44;;;17.69;81.10
29239;BME280;16267;48.194;11.546;2023-09-19T05:42:14;95872.47;;;17.71;80.77
29239;BME280;16267;48.194;11.546;2023-09-19T05:44:40;95867.31;;;17.73;80.88
29239;BME280;16267;48.194;11.546;2023-09-19T05:47:06;95875.47;;;17.73;81.21
29239;BME280;16267;48.194;11.546;2023-09-19T05:49:35;95870.03;;;17.73;80.87
29239;BME280;16267;48.194;11.546;2023-09-19T05:52:07;95875.94;;;17.72;80.96
29239;BME280;16267;48.194;11.546;2023-09-19T05:54:33;95878.66;;;17.72;81.01
29239;BME280;16267;48.194;11.546;2023-09-19T05:57:00;95887.09;;;17.74;81.14
29239;BME280;16267;48.194;11.546;2023-09-19T05:59:27;95881.22;;;17.75;80.63
29239;BME280;16267;48.194;11.546;2023-09-19T06:01:53;95891.19;;;17.78;80.86
29239;BME280;16267;48.194;11.546;2023-09-19T06:04:19;95882.16;;;17.81;81.09
29239;BME280;16267;48.194;11.546;2023-09-19T06:06:45;95887.13;;;17.83;80.20
29239;BME280;16267;48.194;11.546;2023-09-19T06:09:14;95892.72;;;17.79;79.65
29239;BME280;16267;48.194;11.546;2023-09-19T06:11:42;95887.13;;;17.83;80.51
29239;BME280;16267;48.194;11.546;2023-09-19T06:14:08;95883.22;;;17.84;79.74
29239;BME280;16267;48.194;11.546;2023-09-19T06:16:36;95883.97;;;17.84;80.18
29239;BME280;16267;48.194;11.546;2023-09-19T06:19:03;95885.13;;;17.74;79.18
29239;BME280;16267;48.194;11.546;2023-09-19T06:21:32;95896.03;;;17.83;80.67
29239;BME280;16267;48.194;11.546;2023-09-19T06:23:57;95893.31;;;17.83;80.21
29239;BME280;16267;48.194;11.546;2023-09-19T06:26:24;95889.69;;;17.87;80.00
29239;BME280;16267;48.194;11.546;2023-09-19T06:28:52;95892.09;;;17.84;80.17
29239;BME280;16267;48.194;11.546;2023-09-19T06:31:18;95892.25;;;17.90;80.49
29239;BME280;16267;48.194;11.546;2023-09-19T06:33:43;95897.53;;;17.84;80.13
29239;BME280;16267;48.194;11.546;2023-09-19T06:36:09;95896.19;;;17.89;80.07
29239;BME280;16267;48.194;11.546;2023-09-19T06:38:36;95895.84;;;17.78;78.67
29239;BME280;16267;48.194;11.546;2023-09-19T06:41:04;95894.66;;;17.79;79.65
29239;BME280;16267;48.194;11.546;2023-09-19T06:43:33;95903.13;;;17.81;78.92
29239;BME280;16267;48.194;11.546;2023-09-19T06:46:03;95907.53;;;17.88;80.01
29239;BME280;16267;48.194;11.546;2023-09-19T06:48:29;95910.25;;;17.97;80.31
29239;BME280;16267;48.194;11.546;2023-09-19T06:50:56;95909.66;;;18.02;80.19
29239;BME280;16267;48.194;11.546;2023-09-19T06:53:24;95914.47;;;17.98;78.32
29239;BME280;16267;48.194;11.546;2023-09-19T06:55:51;95909.78;;;17.98;78.71
29239;BME280;16267;48.194;11.546;2023-09-19T06:58:23;95911.16;;;18.03;78.93
29239;BME280;16267;48.194;11.546;2023-09-19T07:00:49;95915.41;;;18.13;79.45
29239;BME280;16267;48.194;11.546;2023-09-19T07:03:16;95914.50;;;18.16;80.15
29239;BME280;16267;48.194;11.546;2023-09-19T07:05:48;95921.56;;;18.14;79.50
29239;BME280;16267;48.194;11.546;2023-09-19T07:08:14;95924.59;;;18.16;78.87
29239;BME280;16267;48.194;11.546;2023-09-19T07:10:42;95923.22;;;18.11;78.25
29239;BME280;16267;48.194;11.546;2023-09-19T07:13:14;95931.84;;;18.19;78.42
29239;BME280;16267;48.194;11.546;2023-09-19T07:15:43;95941.81;;;18.31;78.95
29239;BME280;16267;48.194;11.546;2023-09-19T07:21:14;95938.34;;;18.31;78.39
29239;BME280;16267;48.194;11.546;2023-09-19T07:24:12;95946.50;;;18.31;78.75
29239;BME280;16267;48.194;11.546;2023-09-19T07:26:39;95943.19;;;18.36;78.37
29239;BME280;16267;48.194;11.546;2023-09-19T07:29:05;95948.78;;;18.41;78.12
29239;BME280;16267;48.194;11.546;2023-09-19T07:31:32;95936.53;;;18.46;78.33
29239;BME280;16267;48.194;11.546;2023-09-19T07:33:58;95937.44;;;18.52;77.99
29239;BME280;16267;48.194;11.546;2023-09-19T07:36:24;95940.75;;;18.56;78.46
29239;BME280;16267;48.194;11.546;2023-09-19T07:38:55;95930.94;;;18.59;78.21
29239;BME280;16267;48.194;11.546;2023-09-19T07:41:24;95930.81;;;18.62;78.83
29239;BME280;16267;48.194;11.546;2023-09-19T07:43:49;95926.41;;;18.65;77.28
29239;BME280;16267;48.194;11.546;2023-09-19T07:46:15;95938.34;;;18.67;76.99
29239;BME280;16267;48.194;11.546;2023-09-19T07:48:41;95936.41;;;18.68;77.09
29239;BME280;16267;48.194;11.546;2023-09-19T07:51:09;95940.91;;;18.71;77.52
29239;BME280;16267;48.194;11.546;2023-09-19T07:53:36;95936.97;;;18.72;78.78
29239;BME280;16267;48.194;11.546;2023-09-19T07:56:08;95954.22;;;18.78;79.28
29239;BME280;16267;48.194;11.546;2023-09-19T07:58:35;95945.16;;;18.81;78.91
29239;BME280;16267;48.194;11.546;2023-09-19T08:01:07;95948.47;;;18.85;78.15
29239;BME280;16267;48.194;11.546;2023-09-19T08:03:34;95949.53;;;18.88;77.45
29239;BME280;16267;48.194;11.546;2023-09-19T08:06:00;95948.91;;;18.84;77.97
29239;BME280;16267;48.194;11.546;2023-09-19T08:08:33;95941.53;;;18.93;78.32
29239;BME280;16267;48.194;11.546;2023-09-19T08:11:06;95951.94;;;18.95;76.70
29239;BME280;16267;48.194;11.546;2023-09-19T08:13:46;95946.66;;;18.91;76.09
29239;BME280;16267;48.194;11.546;2023-09-19T08:16:15;95948.59;;;19.00;76.28
29239;BME280;16267;48.194;11.546;2023-09-19T08:18:41;95954.31;;;19.11;76.00
29239;BME280;16267;48.194;11.546;2023-09-19T08:21:07;95962.91;;;19.19;76.76
29239;BME280;16267;48.194;11.546;2023-09-19T08:23:37;95958.22;;;19.20;75.11
29239;BME280;16267;48.194;11.546;2023-09-19T08:26:04;95960.50;;;19.12;74.10
29239;BME280;16267;48.194;11.546;2023-09-19T08:28:33;95958.84;;;19.14;74.94
29239;BME280;16267;48.194;11.546;2023-09-19T08:31:07;95962.59;;;19.26;75.68
29239;BME280;16267;48.194;11.546;2023-09-19T08:33:37;95960.47;;;19.30;75.11
29239;BME280;16267;48.194;11.546;2023-09-19T08:36:04;95960.16;;;19.37;75.04
29239;BME280;16267;48.194;11.546;2023-09-19T08:38:35;95949.69;;;19.45;75.61
29239;BME280;16267;48.194;11.546;2023-09-19T08:41:07;95953.44;;;19.48;74.20
29239;BME280;16267;48.194;11.546;2023-09-19T08:43:34;95950.72;;;19.57;74.91
29239;BME280;16267;48.194;11.546;2023-09-19T08:46:12;95955.97;;;19.60;73.92
29239;BME280;16267;48.194;11.546;2023-09-19T08:49:06;95950.09;;;19.62;72.10
29239;BME280;16267;48.194;11.546;2023-09-19T08:51:42;95960.66;;;19.69;72.60
29239;BME280;16267;48.194;11.546;2023-09-19T08:54:24;95949.59;;;19.73;70.94
29239;BME280;16267;48.194;11.546;2023-09-19T08:56:54;95949.44;;;19.76;70.81
29239;BME280;16267;48.194;11.546;2023-09-19T08:59:23;95953.03;;;19.82;70.97
29239;BME280;16267;48.194;11.546;2023-09-19T09:01:56;95955.13;;;19.88;69.99
29239;BME280;16267;48.194;11.546;2023-09-19T09:04:32;95952.41;;;19.88;69.83
29239;BME280;16267;48.194;11.546;2023-09-19T09:06:59;95963.88;;;19.92;70.23
29239;BME280;16267;48.194;11.546;2023-09-19T09:09:26;95958.31;;;19.86;68.76
29239;BME280;16267;48.194;11.546;2023-09-19T09:11:53;95964.47;;;19.96;70.39
29239;BME280;16267;48.194;11.546;2023-09-19T09:14:49;95967.78;;;20.00;69.21
29239;BME280;16267;48.194;11.546;2023-09-19T09:17:16;95966.69;;;20.07;68.63
29239;BME280;16267;48.194;11.546;2023-09-19T09:19:48;95968.88;;;20.17;69.22
29239;BME280;16267;48.194;11.546;2023-09-19T09:22:14;95959.44;;;20.27;69.64
29239;BME280;16267;48.194;11.546;2023-09-19T09:24:58;95961.22;;;20.31;67.72
29239;BME280;16267;48.194;11.546;2023-09-19T09:27:24;95967.16;;;20.29;64.09
29239;BME280;16267;48.194;11.546;2023-09-19T09:29:51;95969.81;;;20.38;65.25
29239;BME280;16267;48.194;11.546;2023-09-19T09:32:28;95972.13;;;20.31;63.33
29239;BME280;16267;48.194;11.546;2023-09-19T09:35:00;95966.31;;;20.38;65.14
29239;BME280;16267;48.194;11.546;2023-09-19T09:37:28;95971.91;;;20.19;63.48
29239;BME280;16267;48.194;11.546;2023-09-19T09:39:59;95972.41;;;20.33;64.48
29239;BME280;16267;48.194;11.546;2023-09-19T09:42:43;95971.97;;;20.34;63.31
29239;BME280;16267;48.194;11.546;2023-09-19T09:45:23;95962.03;;;20.46;63.42
29239;BME280;16267;48.194;11.546;2023-09-19T09:47:59;95966.78;;;20.60;64.10
29239;BME280;16267;48.194;11.546;2023-09-19T09:50:35;95957.59;;;20.72;64.39
29239;BME280;16267;48.194;11.546;2023-09-19T09:53:27;95964.78;;;20.85;62.95
29239;BME280;16267;48.194;11.546;2023-09-19T09:56:09;95961.22;;;20.93;63.65
29239;BME280;16267;48.194;11.546;2023-09-19T09:58:49;95964.69;;;20.94;60.87
29239;BME280;16267;48.194;11.546;2023-09-19T10:01:15;95958.06;;;20.71;58.32
29239;BME280;16267;48.194;11.546;2023-09-19T10:03:43;95968.16;;;20.80;59.61
29239;BME280;16267;48.194;11.546;2023-09-19T10:06:13;95967.41;;;20.79;60.04
29239;BME280;16267;48.194;11.546;2023-09-19T10:09:03;95964.28;;;20.86;61.18
29239;BME280;16267;48.194;11.546;2023-09-19T10:11:47;95978.22;;;20.88;61.11
29239;BME280;16267;48.194;11.546;2023-09-19T10:14:27;95965.53;;;20.85;60.91
29239;BME280;16267;48.194;11.546;2023-09-19T10:16:58;95966.84;;;20.90;60.83
29239;BME280;16267;48.194;11.546;2023-09-19T10:19:36;95969.28;;;21.03;61.48
29239;BME280;16267;48.194;11.546;2023-09-19T10:22:03;95967.06;;;21.16;61.47
29239;BME280;16267;48.194;11.546;2023-09-19T10:24:30;95969.69;;;21.25;60.25
29239;BME280;16267;48.194;11.546;2023-09-19T10:27:00;95965.22;;;21.37;58.78
29239;BME280;16267;48.194;11.546;2023-09-19T10:29:28;95965.09;;;21.46;58.99
29239;BME280;16267;48.194;11.546;2023-09-19T10:31:58;95966.22;;;21.54;58.65
29239;BME280;16267;48.194;11.546;2023-09-19T10:34:25;95969.69;;;21.55;56.12
29239;BME280;16267;48.194;11.546;2023-09-19T10:36:52;95968.28;;;21.59;56.70
29239;BME280;16267;48.194;11.546;2023-09-19T10:39:19;95975.03;;;21.64;58.09
29239;BME280;16267;48.194;11.546;2023-09-19T10:41:55;95969.22;;;21.56;55.58
29239;BME280;16267;48.194;11.546;2023-09-19T10:44:25;95969.97;;;21.57;55.31
29239;BME280;16267;48.194;11.546;2023-09-19T10:46:52;95972.78;;;21.63;54.81
29239;BME280;16267;48.194;11.546;2023-09-19T10:49:20;95973.34;;;21.67;56.19
29239;BME280;16267;48.194;11.546;2023-09-19T10:51:49;95972.38;;;21.70;55.70
29239;BME280;16267;48.194;11.546;2023-09-19T10:54:22;95975.59;;;21.68;56.43
29239;BME280;16267;48.194;11.546;2023-09-19T10:56:53;95979.94;;;21.60;55.20
29239;BME280;16267;48.194;11.546;2023-09-19T10:59:21;95978.72;;;21.61;55.94
29239;BME280;16267;48.194;11.546;2023-09-19T11:01:51;95980.63;;;21.55;55.31
29239;BME280;16267;48.194;11.546;2023-09-19T11:04:44;95972.50;;;21.60;55.02
29239;BME280;16267;48.194;11.546;2023-09-19T11:07:19;95970.06;;;21.63;54.86
29239;BME280;16267;48.194;11.546;2023-09-19T11:09:53;95969.66;;;21.70;55.01
29239;BME280;16267;48.194;11.546;2023-09-19T11:14:58;95970.38;;;21.85;54.91
29239;BME280;16267;48.194;11.546;2023-09-19T11:17:35;95965.75;;;21.91;53.48
29239;BME280;16267;48.194;11.546;2023-09-19T11:30:48;95966.81;;;22.14;51.97
29239;BME280;16267;48.194;11.546;2023-09-19T11:33:32;95965.88;;;22.17;51.44
29239;BME280;16267;48.194;11.546;2023-09-19T11:36:16;95963.69;;;22.21;52.57
29239;BME280;16267;48.194;11.546;2023-09-19T11:47:10;95961.06;;;22.47;49.45
29239;BME280;16267;48.194;11.546;2023-09-19T11:49:49;95963.41;;;22.60;51.68
29239;BME280;16267;48.194;11.546;2023-09-19T11:52:28;95958.91;;;22.57;48.16
29239;BME280;16267;48.194;11.546;2023-09-19T11:55:03;95959.72;;;22.63;50.01
29239;BME280;16267;48.194;11.546;2023-09-19T11:57:39;95971.16;;;22.62;50.83
29239;BME280;16267;48.194;11.546;2023-09-19T12:00:08;95962.81;;;22.51;50.57
29239;BME280;16267;48.194;11.546;2023-09-19T12:02:47;95967.28;;;22.48;50.10
29239;BME280;16267;48.194;11.546;2023-09-19T12:05:29;95968.75;;;22.49;50.38
29239;BME280;16267;48.194;11.546;2023-09-19T12:07:55;95967.75;;;22.46;50.36
29239;BME280;16267;48.194;11.546;2023-09-19T12:10:20;95959.66;;;22.58;51.57
29239;BME280;16267;48.194;11.546;2023-09-19T12:12:49;95968.38;;;22.56;51.92
29239;BME280;16267;48.194;11.546;2023-09-19T12:15:22;95955.38;;;22.51;50.50
29239;BME280;16267;48.194;11.546;2023-09-19T12:17:48;95953.38;;;22.52;51.00
29239;BME280;16267;48.194;11.546;2023-09-19T12:20:14;95955.91;;;22.55;50.66
29239;BME280;16267;48.194;11.546;2023-09-19T12:22:45;95953.16;;;22.55;51.32
29239;BME280;16267;48.194;11.546;2023-09-19T12:25:15;95957.88;;;22.55;51.07
29239;BME280;16267;48.194;11.546;2023-09-19T12:27:48;95958.84;;;22.52;51.33
29239;BME280;16267;48.194;11.546;2023-09-19T12:30:18;95954.88;;;22.53;51.78
29239;BME280;16267;48.194;11.546;2023-09-19T12:32:46;95953.09;;;22.49;51.13
29239;BME280;16267;48.194;11.546;2023-09-19T12:36:18;95952.34;;;22.49;51.01
29239;BME280;16267;48.194;11.546;2023-09-19T12:39:23;95950.03;;;22.42;51.81
29239;BME280;16267;48.194;11.546;2023-09-19T12:41:53;95951.53;;;22.43;52.74
29239;BME280;16267;48.194;11.546;2023-09-19T12:44:20;95955.63;;;22.33;53.02
29239;BME280;16267;48.194;11.546;2023-09-19T12:47:14;95956.88;;;22.32;53.95
29239;BME280;16267;48.194;11.546;2023-09-19T12:50:10;95963.91;;;22.38;54.60
29239;BME280;16267;48.194;11.546;2023-09-19T12:52:53;95947.66;;;22.29;54.16
29239;BME280;16267;48.194;11.546;2023-09-19T12:55:31;95954.59;;;22.10;54.42
29239;BME280;16267;48.194;11.546;2023-09-19T12:58:19;95961.53;;;22.11;54.68
29239;BME280;16267;48.194;11.546;2023-09-19T13:00:46;95966.19;;;22.04;54.92
29239;BME280;16267;48.194;11.546;2023-09-19T13:09:40;95959.81;;;21.93;55.75
29239;BME280;16267;48.194;11.546;2023-09-19T13:12:35;95951.97;;;22.00;56.17
29239;BME280;16267;48.194;11.546;2023-09-19T13:15:14;95949.03;;;22.04;55.75
29239;BME280;16267;48.194;11.546;2023-09-19T13:17:55;95953.00;;;22.03;55.61
29239;BME280;16267;48.194;11.546;2023-09-19T13:20:26;95939.88;;;22.07;55.95
29239;BME280;16267;48.194;11.546;2023-09-19T13:23:05;95935.44;;;22.10;56.03
29239;BME280;16267;48.194;11.546;2023-09-19T13:25:51;95932.22;;;22.11;55.23
29239;BME280;16267;48.194;11.546;2023-09-19T13:28:27;95931.53;;;22.16;55.65
29239;BME280;16267;48.194;11.546;2023-09-19T13:31:16;95931.13;;;22.18;55.96
29239;BME280;16267;48.194;11.546;2023-09-19T13:37:07;95928.44;;;22.23;56.21
29239;BME280;16267;48.194;11.546;2023-09-19T13:39:35;95921.34;;;22.17;55.25
29239;BME280;16267;48.194;11.546;2023-09-19T13:42:03;95917.97;;;22.22;55.29
29239;BME280;16267;48.194;11.546;2023-09-19T13:44:38;95919.50;;;22.23;56.03
29239;BME280;16267;48.194;11.546;2023-09-19T13:47:04;95914.72;;;22.18;54.61
29239;BME280;16267;48.194;11.546;2023-09-19T13:49:35;95912.78;;;22.24;55.67
29239;BME280;16267;48.194;11.546;2023-09-19T13:52:06;95915.25;;;22.22;55.29
29239;BME280;16267;48.194;11.546;2023-09-19T13:54:40;95909.78;;;22.22;55.08
29239;BME280;16267;48.194;11.546;2023-09-19T13:57:06;95905.06;;;22.22;55.45
29239;BME280;16267;48.194;11.546;2023-09-19T13:59:33;95908.56;;;22.23;55.83